sensor_id;sensor_type;location;lat;lon;timestamp;temperature;humidity
48806;DHT22;34625;47.176;27.548;2023-02-13T00:01:21;20.20;59.20
48806;DHT22;34625;47.176;27.548;2023-02-13T00:03:47;20.20;59.30
48806;DHT22;34625;47.176;27.548;2023-02-13T00:06:13;20.20;59.30
48806;DHT22;34625;47.176;27.548;2023-02-13T00:08:39;20.10;59.30
48806;DHT22;34625;47.176;27.548;2023-02-13T00:11:05;20.20;59.10
48806;DHT22;34625;47.176;27.548;2023-02-13T00:13:33;20.30;59.10
48806;DHT22;34625;47.176;27.548;2023-02-13T00:16:02;20.20;58.90
48806;DHT22;34625;47.176;27.548;2023-02-13T00:18:31;20.20;58.80
48806;DHT22;34625;47.176;27.548;2023-02-13T00:20:58;20.10;58.60
48806;DHT22;34625;47.176;27.548;2023-02-13T00:23:25;20.10;58.50
48806;DHT22;34625;47.176;27.548;2023-02-13T00:25:50;20.00;58.40
48806;DHT22;34625;47.176;27.548;2023-02-13T00:28:16;20.00;58.60
48806;DHT22;34625;47.176;27.548;2023-02-13T00:30:42;20.00;58.60
48806;DHT22;34625;47.176;27.548;2023-02-13T00:33:08;20.00;58.70
48806;DHT22;34625;47.176;27.548;2023-02-13T00:35:35;20.10;58.50
48806;DHT22;34625;47.176;27.548;2023-02-13T00:38:00;20.00;58.40
48806;DHT22;34625;47.176;27.548;2023-02-13T00:40:26;20.00;58.30
48806;DHT22;34625;47.176;27.548;2023-02-13T00:42:52;19.90;58.20
48806;DHT22;34625;47.176;27.548;2023-02-13T00:45:18;20.10;58.20
48806;DHT22;34625;47.176;27.548;2023-02-13T00:47:45;20.10;58.20
48806;DHT22;34625;47.176;27.548;2023-02-13T00:50:11;20.00;57.90
48806;DHT22;34625;47.176;27.548;2023-02-13T00:52:38;20.10;57.90
48806;DHT22;34625;47.176;27.548;2023-02-13T00:55:04;20.00;57.70
48806;DHT22;34625;47.176;27.548;2023-02-13T00:57:30;20.00;57.80
48806;DHT22;34625;47.176;27.548;2023-02-13T00:59:57;20.00;57.70
48806;DHT22;34625;47.176;27.548;2023-02-13T01:02:24;20.00;57.60
48806;DHT22;34625;47.176;27.548;2023-02-13T01:04:50;20.00;57.60
48806;DHT22;34625;47.176;27.548;2023-02-13T01:07:17;20.00;57.70
48806;DHT22;34625;47.176;27.548;2023-02-13T01:09:43;20.00;57.70
48806;DHT22;34625;47.176;27.548;2023-02-13T01:12:10;19.90;57.80
48806;DHT22;34625;47.176;27.548;2023-02-13T01:14:36;19.90;57.90
48806;DHT22;34625;47.176;27.548;2023-02-13T01:17:02;19.80;57.90
48806;DHT22;34625;47.176;27.548;2023-02-13T01:19:28;19.80;58.00
48806;DHT22;34625;47.176;27.548;2023-02-13T01:21:54;19.80;58.10
48806;DHT22;34625;47.176;27.548;2023-02-13T01:24:20;19.80;58.10
48806;DHT22;34625;47.176;27.548;2023-02-13T01:26:46;19.60;58.10
48806;DHT22;34625;47.176;27.548;2023-02-13T01:29:12;19.60;58.10
48806;DHT22;34625;47.176;27.548;2023-02-13T01:31:39;19.70;58.30
48806;DHT22;34625;47.176;27.548;2023-02-13T01:34:05;19.70;58.40
48806;DHT22;34625;47.176;27.548;2023-02-13T01:36:30;19.70;58.20
48806;DHT22;34625;47.176;27.548;2023-02-13T01:38:57;19.60;58.10
48806;DHT22;34625;47.176;27.548;2023-02-13T01:41:25;19.70;58.00
48806;DHT22;34625;47.176;27.548;2023-02-13T01:43:59;19.70;58.00
48806;DHT22;34625;47.176;27.548;2023-02-13T01:46:30;19.80;57.90
48806;DHT22;34625;47.176;27.548;2023-02-13T01:49:08;19.70;57.70
48806;DHT22;34625;47.176;27.548;2023-02-13T01:51:36;19.70;57.60
48806;DHT22;34625;47.176;27.548;2023-02-13T01:54:15;19.70;57.80
48806;DHT22;34625;47.176;27.548;2023-02-13T01:56:52;19.60;57.90
48806;DHT22;34625;47.176;27.548;2023-02-13T01:59:30;19.70;58.10
48806;DHT22;34625;47.176;27.548;2023-02-13T02:01:58;19.50;58.20
48806;DHT22;34625;47.176;27.548;2023-02-13T02:04:31;19.60;58.30
48806;DHT22;34625;47.176;27.548;2023-02-13T02:07:27;19.60;58.50
48806;DHT22;34625;47.176;27.548;2023-02-13T02:09:55;19.60;58.60
48806;DHT22;34625;47.176;27.548;2023-02-13T02:14:58;19.60;58.20
48806;DHT22;34625;47.176;27.548;2023-02-13T02:17:29;19.60;58.20
48806;DHT22;34625;47.176;27.548;2023-02-13T02:25:54;19.60;58.00
48806;DHT22;34625;47.176;27.548;2023-02-13T02:48:31;19.60;58.00
48806;DHT22;34625;47.176;27.548;2023-02-13T02:51:29;19.40;58.10
48806;DHT22;34625;47.176;27.548;2023-02-13T02:54:11;19.60;58.30
48806;DHT22;34625;47.176;27.548;2023-02-13T02:57:02;19.40;58.30
48806;DHT22;34625;47.176;27.548;2023-02-13T02:59:32;19.40;58.50
48806;DHT22;34625;47.176;27.548;2023-02-13T03:02:17;19.40;58.40
48806;DHT22;34625;47.176;27.548;2023-02-13T03:05:03;19.30;58.60
48806;DHT22;34625;47.176;27.548;2023-02-13T03:07:48;19.40;58.80
48806;DHT22;34625;47.176;27.548;2023-02-13T03:10:26;19.20;59.00
48806;DHT22;34625;47.176;27.548;2023-02-13T03:13:42;19.40;59.00
48806;DHT22;34625;47.176;27.548;2023-02-13T03:16:19;19.30;58.70
48806;DHT22;34625;47.176;27.548;2023-02-13T03:19:12;19.40;58.50
48806;DHT22;34625;47.176;27.548;2023-02-13T03:22:08;19.40;58.40
48806;DHT22;34625;47.176;27.548;2023-02-13T03:25:14;19.40;58.30
48806;DHT22;34625;47.176;27.548;2023-02-13T03:28:00;19.30;58.40
48806;DHT22;34625;47.176;27.548;2023-02-13T03:31:13;19.20;58.50
48806;DHT22;34625;47.176;27.548;2023-02-13T03:33:52;19.30;58.80
48806;DHT22;34625;47.176;27.548;2023-02-13T03:41:59;19.10;59.10
48806;DHT22;34625;47.176;27.548;2023-02-13T03:44:46;19.20;59.40
48806;DHT22;34625;47.176;27.548;2023-02-13T03:47:33;19.10;59.40
48806;DHT22;34625;47.176;27.548;2023-02-13T03:50:00;19.20;59.10
48806;DHT22;34625;47.176;27.548;2023-02-13T03:55:42;19.40;58.90
48806;DHT22;34625;47.176;27.548;2023-02-13T03:58:35;19.30;58.80
48806;DHT22;34625;47.176;27.548;2023-02-13T04:01:25;19.30;58.60
48806;DHT22;34625;47.176;27.548;2023-02-13T04:07:08;19.40;58.70
48806;DHT22;34625;47.176;27.548;2023-02-13T04:09:39;19.30;58.50
48806;DHT22;34625;47.176;27.548;2023-02-13T04:12:18;19.40;58.30
48806;DHT22;34625;47.176;27.548;2023-02-13T04:14:47;19.40;58.30
48806;DHT22;34625;47.176;27.548;2023-02-13T04:17:29;19.30;58.30
48806;DHT22;34625;47.176;27.548;2023-02-13T04:19:57;19.40;58.30
48806;DHT22;34625;47.176;27.548;2023-02-13T04:22:22;19.20;58.40
48806;DHT22;34625;47.176;27.548;2023-02-13T04:24:48;19.30;58.70
48806;DHT22;34625;47.176;27.548;2023-02-13T04:27:16;19.30;58.80
48806;DHT22;34625;47.176;27.548;2023-02-13T04:29:42;19.20;58.90
48806;DHT22;34625;47.176;27.548;2023-02-13T04:32:11;19.20;59.10
48806;DHT22;34625;47.176;27.548;2023-02-13T04:34:37;19.20;59.60
48806;DHT22;34625;47.176;27.548;2023-02-13T04:37:03;19.20;59.30
48806;DHT22;34625;47.176;27.548;2023-02-13T04:39:29;19.20;59.20
48806;DHT22;34625;47.176;27.548;2023-02-13T04:41:55;19.40;59.30
48806;DHT22;34625;47.176;27.548;2023-02-13T04:44:21;19.40;59.10
48806;DHT22;34625;47.176;27.548;2023-02-13T04:46:47;19.40;58.90
48806;DHT22;34625;47.176;27.548;2023-02-13T04:49:13;19.40;58.90
48806;DHT22;34625;47.176;27.548;2023-02-13T04:51:39;19.50;59.10
48806;DHT22;34625;47.176;27.548;2023-02-13T04:54:05;19.40;58.50
48806;DHT22;34625;47.176;27.548;2023-02-13T04:56:31;19.20;58.30
48806;DHT22;34625;47.176;27.548;2023-02-13T04:58:57;19.20;58.90
48806;DHT22;34625;47.176;27.548;2023-02-13T05:01:23;19.10;59.40
48806;DHT22;34625;47.176;27.548;2023-02-13T05:03:49;19.00;59.40
48806;DHT22;34625;47.176;27.548;2023-02-13T05:06:15;18.90;60.00
48806;DHT22;34625;47.176;27.548;2023-02-13T05:08:41;19.00;60.20
48806;DHT22;34625;47.176;27.548;2023-02-13T05:11:07;19.00;60.20
48806;DHT22;34625;47.176;27.548;2023-02-13T05:13:33;19.00;60.70
48806;DHT22;34625;47.176;27.548;2023-02-13T05:15:59;19.00;60.70
48806;DHT22;34625;47.176;27.548;2023-02-13T05:18:25;19.00;59.70
48806;DHT22;34625;47.176;27.548;2023-02-13T05:20:51;19.10;59.50
48806;DHT22;34625;47.176;27.548;2023-02-13T05:23:35;19.10;59.40
48806;DHT22;34625;47.176;27.548;2023-02-13T05:26:02;19.10;59.50
48806;DHT22;34625;47.176;27.548;2023-02-13T05:28:28;19.20;59.00
48806;DHT22;34625;47.176;27.548;2023-02-13T05:31:13;19.30;59.20
48806;DHT22;34625;47.176;27.548;2023-02-13T05:33:39;19.20;59.00
48806;DHT22;34625;47.176;27.548;2023-02-13T05:36:05;19.30;58.80
48806;DHT22;34625;47.176;27.548;2023-02-13T05:38:31;19.40;58.30
48806;DHT22;34625;47.176;27.548;2023-02-13T05:40:59;19.50;58.30
48806;DHT22;34625;47.176;27.548;2023-02-13T05:43:26;19.50;58.10
48806;DHT22;34625;47.176;27.548;2023-02-13T05:46:07;19.50;57.90
48806;DHT22;34625;47.176;27.548;2023-02-13T05:48:33;19.60;57.50
48806;DHT22;34625;47.176;27.548;2023-02-13T05:51:00;19.60;57.30
48806;DHT22;34625;47.176;27.548;2023-02-13T05:53:26;19.60;57.30
48806;DHT22;34625;47.176;27.548;2023-02-13T05:55:52;19.70;57.20
48806;DHT22;34625;47.176;27.548;2023-02-13T05:58:19;19.80;57.30
48806;DHT22;34625;47.176;27.548;2023-02-13T06:00:45;19.80;57.30
48806;DHT22;34625;47.176;27.548;2023-02-13T06:03:12;19.90;57.20
48806;DHT22;34625;47.176;27.548;2023-02-13T06:05:38;20.00;56.80
48806;DHT22;34625;47.176;27.548;2023-02-13T06:08:04;20.00;56.60
48806;DHT22;34625;47.176;27.548;2023-02-13T06:10:30;20.00;56.80
48806;DHT22;34625;47.176;27.548;2023-02-13T06:12:56;20.10;56.70
48806;DHT22;34625;47.176;27.548;2023-02-13T06:15:22;20.30;56.50
48806;DHT22;34625;47.176;27.548;2023-02-13T06:17:48;20.20;56.20
48806;DHT22;34625;47.176;27.548;2023-02-13T06:20:14;20.20;56.20
48806;DHT22;34625;47.176;27.548;2023-02-13T06:22:40;20.20;56.10
48806;DHT22;34625;47.176;27.548;2023-02-13T06:25:06;20.20;56.00
48806;DHT22;34625;47.176;27.548;2023-02-13T06:27:32;20.20;55.20
48806;DHT22;34625;47.176;27.548;2023-02-13T06:29:58;20.30;58.40
48806;DHT22;34625;47.176;27.548;2023-02-13T06:32:24;20.80;57.80
48806;DHT22;34625;47.176;27.548;2023-02-13T06:34:50;20.90;57.00
48806;DHT22;34625;47.176;27.548;2023-02-13T06:37:16;21.00;56.30
48806;DHT22;34625;47.176;27.548;2023-02-13T06:39:42;21.10;54.40
48806;DHT22;34625;47.176;27.548;2023-02-13T06:42:08;21.30;53.20
48806;DHT22;34625;47.176;27.548;2023-02-13T06:44:34;21.40;52.70
48806;DHT22;34625;47.176;27.548;2023-02-13T06:47:00;21.40;52.50
48806;DHT22;34625;47.176;27.548;2023-02-13T06:49:25;21.40;53.20
48806;DHT22;34625;47.176;27.548;2023-02-13T06:51:51;21.50;52.60
48806;DHT22;34625;47.176;27.548;2023-02-13T06:54:17;21.60;51.10
48806;DHT22;34625;47.176;27.548;2023-02-13T06:56:43;21.60;51.20
48806;DHT22;34625;47.176;27.548;2023-02-13T06:59:09;21.60;51.20
48806;DHT22;34625;47.176;27.548;2023-02-13T07:01:35;21.60;50.60
48806;DHT22;34625;47.176;27.548;2023-02-13T07:04:01;21.60;49.80
48806;DHT22;34625;47.176;27.548;2023-02-13T07:06:27;21.60;53.70
48806;DHT22;34625;47.176;27.548;2023-02-13T07:09:02;21.50;49.00
48806;DHT22;34625;47.176;27.548;2023-02-13T07:11:28;21.40;50.60
48806;DHT22;34625;47.176;27.548;2023-02-13T07:13:54;21.40;50.70
48806;DHT22;34625;47.176;27.548;2023-02-13T07:16:20;21.20;52.90
48806;DHT22;34625;47.176;27.548;2023-02-13T07:18:46;21.20;54.90
48806;DHT22;34625;47.176;27.548;2023-02-13T07:21:12;21.10;55.40
48806;DHT22;34625;47.176;27.548;2023-02-13T07:23:38;21.20;55.90
48806;DHT22;34625;47.176;27.548;2023-02-13T07:26:05;21.20;55.50
48806;DHT22;34625;47.176;27.548;2023-02-13T07:28:31;21.20;56.10
48806;DHT22;34625;47.176;27.548;2023-02-13T07:30:57;21.10;56.40
48806;DHT22;34625;47.176;27.548;2023-02-13T07:33:28;21.00;56.90
48806;DHT22;34625;47.176;27.548;2023-02-13T07:35:53;21.00;57.00
48806;DHT22;34625;47.176;27.548;2023-02-13T07:38:19;21.00;57.40
48806;DHT22;34625;47.176;27.548;2023-02-13T07:40:45;20.90;57.90
48806;DHT22;34625;47.176;27.548;2023-02-13T07:43:12;21.00;57.90
48806;DHT22;34625;47.176;27.548;2023-02-13T07:45:38;21.10;58.10
48806;DHT22;34625;47.176;27.548;2023-02-13T07:48:04;21.10;58.40
48806;DHT22;34625;47.176;27.548;2023-02-13T07:50:30;21.10;58.80
48806;DHT22;34625;47.176;27.548;2023-02-13T07:52:58;21.20;58.70
48806;DHT22;34625;47.176;27.548;2023-02-13T07:55:25;21.20;59.70
48806;DHT22;34625;47.176;27.548;2023-02-13T07:57:52;21.10;59.50
48806;DHT22;34625;47.176;27.548;2023-02-13T08:00:18;21.30;59.10
48806;DHT22;34625;47.176;27.548;2023-02-13T08:02:45;21.30;59.00
48806;DHT22;34625;47.176;27.548;2023-02-13T08:05:11;21.40;58.20
48806;DHT22;34625;47.176;27.548;2023-02-13T08:07:37;21.40;61.90
48806;DHT22;34625;47.176;27.548;2023-02-13T08:10:06;21.60;62.90
48806;DHT22;34625;47.176;27.548;2023-02-13T08:12:51;22.00;63.10
48806;DHT22;34625;47.176;27.548;2023-02-13T08:15:17;22.20;62.20
48806;DHT22;34625;47.176;27.548;2023-02-13T08:17:43;22.50;65.80
48806;DHT22;34625;47.176;27.548;2023-02-13T08:20:09;22.50;59.10
48806;DHT22;34625;47.176;27.548;2023-02-13T08:22:36;22.30;57.40
48806;DHT22;34625;47.176;27.548;2023-02-13T08:25:03;22.30;57.70
48806;DHT22;34625;47.176;27.548;2023-02-13T08:27:29;22.10;57.40
48806;DHT22;34625;47.176;27.548;2023-02-13T08:29:56;22.00;57.80
48806;DHT22;34625;47.176;27.548;2023-02-13T08:32:23;22.00;56.80
48806;DHT22;34625;47.176;27.548;2023-02-13T08:34:50;22.00;58.60
48806;DHT22;34625;47.176;27.548;2023-02-13T08:37:16;22.10;58.50
48806;DHT22;34625;47.176;27.548;2023-02-13T08:39:43;22.10;58.70
48806;DHT22;34625;47.176;27.548;2023-02-13T08:42:09;22.10;58.10
48806;DHT22;34625;47.176;27.548;2023-02-13T08:44:36;22.00;56.40
48806;DHT22;34625;47.176;27.548;2023-02-13T08:47:02;22.00;58.50
48806;DHT22;34625;47.176;27.548;2023-02-13T08:49:29;22.00;55.90
48806;DHT22;34625;47.176;27.548;2023-02-13T08:51:55;22.00;56.20
48806;DHT22;34625;47.176;27.548;2023-02-13T08:54:21;21.80;56.80
48806;DHT22;34625;47.176;27.548;2023-02-13T08:56:47;22.00;53.80
48806;DHT22;34625;47.176;27.548;2023-02-13T08:59:13;22.00;56.20
48806;DHT22;34625;47.176;27.548;2023-02-13T09:01:39;22.30;54.90
48806;DHT22;34625;47.176;27.548;2023-02-13T09:04:05;22.60;42.70
48806;DHT22;34625;47.176;27.548;2023-02-13T09:06:31;22.90;37.80
48806;DHT22;34625;47.176;27.548;2023-02-13T09:08:57;22.90;37.70
48806;DHT22;34625;47.176;27.548;2023-02-13T09:11:23;23.00;38.20
48806;DHT22;34625;47.176;27.548;2023-02-13T09:13:51;23.00;39.20
48806;DHT22;34625;47.176;27.548;2023-02-13T09:16:18;23.20;35.10
48806;DHT22;34625;47.176;27.548;2023-02-13T09:18:49;23.10;35.00
48806;DHT22;34625;47.176;27.548;2023-02-13T09:21:16;23.10;35.20
48806;DHT22;34625;47.176;27.548;2023-02-13T09:23:42;23.20;36.40
48806;DHT22;34625;47.176;27.548;2023-02-13T09:26:10;23.20;30.90
48806;DHT22;34625;47.176;27.548;2023-02-13T09:28:37;23.30;51.00
48806;DHT22;34625;47.176;27.548;2023-02-13T09:31:05;23.20;46.70
48806;DHT22;34625;47.176;27.548;2023-02-13T09:33:31;23.00;51.60
48806;DHT22;34625;47.176;27.548;2023-02-13T09:35:57;22.80;50.20
48806;DHT22;34625;47.176;27.548;2023-02-13T09:38:23;22.80;52.00
48806;DHT22;34625;47.176;27.548;2023-02-13T09:40:52;22.70;56.20
48806;DHT22;34625;47.176;27.548;2023-02-13T09:43:29;22.80;54.10
48806;DHT22;34625;47.176;27.548;2023-02-13T09:46:08;22.70;52.60
48806;DHT22;34625;47.176;27.548;2023-02-13T09:48:38;22.50;52.20
48806;DHT22;34625;47.176;27.548;2023-02-13T09:51:05;22.70;54.20
48806;DHT22;34625;47.176;27.548;2023-02-13T09:53:31;22.60;56.20
48806;DHT22;34625;47.176;27.548;2023-02-13T09:56:21;22.60;57.20
48806;DHT22;34625;47.176;27.548;2023-02-13T09:58:57;22.50;56.80
48806;DHT22;34625;47.176;27.548;2023-02-13T10:01:27;22.60;58.40
48806;DHT22;34625;47.176;27.548;2023-02-13T10:06:43;22.90;57.20
48806;DHT22;34625;47.176;27.548;2023-02-13T10:09:30;22.90;57.50
48806;DHT22;34625;47.176;27.548;2023-02-13T10:12:12;22.80;58.40
48806;DHT22;34625;47.176;27.548;2023-02-13T10:15:06;22.70;57.10
48806;DHT22;34625;47.176;27.548;2023-02-13T10:17:40;22.70;58.10
48806;DHT22;34625;47.176;27.548;2023-02-13T10:23:24;22.60;58.40
48806;DHT22;34625;47.176;27.548;2023-02-13T10:25:59;22.70;60.50
48806;DHT22;34625;47.176;27.548;2023-02-13T10:28:31;22.60;59.80
48806;DHT22;34625;47.176;27.548;2023-02-13T10:31:09;22.80;62.40
48806;DHT22;34625;47.176;27.548;2023-02-13T10:33:51;22.80;62.90
48806;DHT22;34625;47.176;27.548;2023-02-13T10:36:27;22.90;63.10
48806;DHT22;34625;47.176;27.548;2023-02-13T10:39:10;23.10;55.00
48806;DHT22;34625;47.176;27.548;2023-02-13T11:00:36;23.10;59.60
48806;DHT22;34625;47.176;27.548;2023-02-13T11:03:03;23.10;61.70
48806;DHT22;34625;47.176;27.548;2023-02-13T11:05:37;23.10;52.30
48806;DHT22;34625;47.176;27.548;2023-02-13T11:08:32;23.10;40.20
48806;DHT22;34625;47.176;27.548;2023-02-13T11:10:56;23.20;40.60
48806;DHT22;34625;47.176;27.548;2023-02-13T11:13:24;23.30;42.00
48806;DHT22;34625;47.176;27.548;2023-02-13T11:18:22;23.50;38.40
48806;DHT22;34625;47.176;27.548;2023-02-13T11:21:21;23.40;36.00
48806;DHT22;34625;47.176;27.548;2023-02-13T11:23:53;23.40;33.60
48806;DHT22;34625;47.176;27.548;2023-02-13T11:26:24;23.30;37.10
48806;DHT22;34625;47.176;27.548;2023-02-13T11:29:00;23.30;34.00
48806;DHT22;34625;47.176;27.548;2023-02-13T11:31:33;23.00;36.20
48806;DHT22;34625;47.176;27.548;2023-02-13T11:36:50;23.40;48.70
48806;DHT22;34625;47.176;27.548;2023-02-13T11:39:19;23.50;49.60
48806;DHT22;34625;47.176;27.548;2023-02-13T11:41:46;23.50;38.50
48806;DHT22;34625;47.176;27.548;2023-02-13T11:44:29;23.30;37.80
48806;DHT22;34625;47.176;27.548;2023-02-13T11:46:58;23.20;35.90
48806;DHT22;34625;47.176;27.548;2023-02-13T11:49:45;23.10;36.20
48806;DHT22;34625;47.176;27.548;2023-02-13T11:52:33;23.10;35.30
48806;DHT22;34625;47.176;27.548;2023-02-13T11:55:05;22.90;39.20
48806;DHT22;34625;47.176;27.548;2023-02-13T12:00:45;23.00;39.00
48806;DHT22;34625;47.176;27.548;2023-02-13T12:06:02;23.00;40.00
48806;DHT22;34625;47.176;27.548;2023-02-13T12:08:29;23.00;39.40
48806;DHT22;34625;47.176;27.548;2023-02-13T12:10:57;23.00;54.60
48806;DHT22;34625;47.176;27.548;2023-02-13T12:13:30;23.20;55.90
48806;DHT22;34625;47.176;27.548;2023-02-13T12:16:20;23.40;56.60
48806;DHT22;34625;47.176;27.548;2023-02-13T12:18:52;23.40;57.20
48806;DHT22;34625;47.176;27.548;2023-02-13T12:26:54;23.50;58.40
48806;DHT22;34625;47.176;27.548;2023-02-13T12:35:17;23.30;59.40
48806;DHT22;34625;47.176;27.548;2023-02-13T12:38:03;23.30;60.20
48806;DHT22;34625;47.176;27.548;2023-02-13T12:46:24;23.20;60.00
48806;DHT22;34625;47.176;27.548;2023-02-13T12:49:07;23.10;60.50
48806;DHT22;34625;47.176;27.548;2023-02-13T13:13:43;23.10;60.70
48806;DHT22;34625;47.176;27.548;2023-02-13T13:22:17;23.00;61.00
48806;DHT22;34625;47.176;27.548;2023-02-13T13:27:44;23.00;61.50
48806;DHT22;34625;47.176;27.548;2023-02-13T13:30:23;22.90;61.30
48806;DHT22;34625;47.176;27.548;2023-02-13T13:33:02;22.90;60.90
48806;DHT22;34625;47.176;27.548;2023-02-13T13:35:30;22.90;61.10
48806;DHT22;34625;47.176;27.548;2023-02-13T13:38:14;22.90;61.30
48806;DHT22;34625;47.176;27.548;2023-02-13T13:43:24;22.90;61.40
48806;DHT22;34625;47.176;27.548;2023-02-13T13:51:15;22.70;61.90
48806;DHT22;34625;47.176;27.548;2023-02-13T13:59:54;22.60;62.30
48806;DHT22;34625;47.176;27.548;2023-02-13T14:07:40;22.50;62.50
48806;DHT22;34625;47.176;27.548;2023-02-13T14:25:38;22.40;62.30
48806;DHT22;34625;47.176;27.548;2023-02-13T14:28:05;22.50;62.60
48806;DHT22;34625;47.176;27.548;2023-02-13T14:30:33;22.60;62.30
48806;DHT22;34625;47.176;27.548;2023-02-13T14:33:03;22.50;62.30
48806;DHT22;34625;47.176;27.548;2023-02-13T14:35:35;22.40;62.30
48806;DHT22;34625;47.176;27.548;2023-02-13T14:38:05;22.50;62.30
48806;DHT22;34625;47.176;27.548;2023-02-13T14:40:43;22.50;62.50
48806;DHT22;34625;47.176;27.548;2023-02-13T14:43:32;22.60;62.40
48806;DHT22;34625;47.176;27.548;2023-02-13T14:46:12;22.60;61.80
48806;DHT22;34625;47.176;27.548;2023-02-13T14:51:19;22.50;61.90
48806;DHT22;34625;47.176;27.548;2023-02-13T14:54:04;22.50;62.50
48806;DHT22;34625;47.176;27.548;2023-02-13T14:56:31;22.60;62.10
48806;DHT22;34625;47.176;27.548;2023-02-13T14:59:24;22.60;61.90
48806;DHT22;34625;47.176;27.548;2023-02-13T15:01:59;22.80;62.00
48806;DHT22;34625;47.176;27.548;2023-02-13T15:04:34;22.80;61.80
48806;DHT22;34625;47.176;27.548;2023-02-13T15:07:05;22.70;62.40
48806;DHT22;34625;47.176;27.548;2023-02-13T15:09:34;22.70;62.40
48806;DHT22;34625;47.176;27.548;2023-02-13T15:12:21;22.50;62.70
48806;DHT22;34625;47.176;27.548;2023-02-13T15:14:48;22.40;62.20
48806;DHT22;34625;47.176;27.548;2023-02-13T15:17:40;22.40;62.90
48806;DHT22;34625;47.176;27.548;2023-02-13T15:22:39;22.30;68.60
48806;DHT22;34625;47.176;27.548;2023-02-13T15:25:07;22.40;69.00
48806;DHT22;34625;47.176;27.548;2023-02-13T15:27:42;22.30;69.60
48806;DHT22;34625;47.176;27.548;2023-02-13T15:32:44;22.30;69.40
48806;DHT22;34625;47.176;27.548;2023-02-13T15:35:25;22.30;67.00
48806;DHT22;34625;47.176;27.548;2023-02-13T15:37:52;22.60;61.00
48806;DHT22;34625;47.176;27.548;2023-02-13T15:42:47;23.10;51.70
48806;DHT22;34625;47.176;27.548;2023-02-13T15:45:17;23.30;51.20
48806;DHT22;34625;47.176;27.548;2023-02-13T15:47:45;23.30;49.00
48806;DHT22;34625;47.176;27.548;2023-02-13T15:52:46;23.60;45.20
48806;DHT22;34625;47.176;27.548;2023-02-13T15:55:25;23.40;44.50
48806;DHT22;34625;47.176;27.548;2023-02-13T15:57:54;23.60;56.50
48806;DHT22;34625;47.176;27.548;2023-02-13T16:00:35;23.50;58.30
48806;DHT22;34625;47.176;27.548;2023-02-13T16:03:04;23.40;59.10
48806;DHT22;34625;47.176;27.548;2023-02-13T16:05:36;23.40;59.90
48806;DHT22;34625;47.176;27.548;2023-02-13T16:10:50;23.10;60.70
48806;DHT22;34625;47.176;27.548;2023-02-13T16:13:32;23.10;61.10
48806;DHT22;34625;47.176;27.548;2023-02-13T16:16:00;23.00;61.40
48806;DHT22;34625;47.176;27.548;2023-02-13T16:18:26;23.00;61.70
48806;DHT22;34625;47.176;27.548;2023-02-13T16:20:53;22.90;62.00
48806;DHT22;34625;47.176;27.548;2023-02-13T16:23:20;22.80;62.50
48806;DHT22;34625;47.176;27.548;2023-02-13T16:25:47;22.80;61.80
48806;DHT22;34625;47.176;27.548;2023-02-13T16:28:23;22.90;61.20
48806;DHT22;34625;47.176;27.548;2023-02-13T16:30:54;23.10;60.10
48806;DHT22;34625;47.176;27.548;2023-02-13T16:40:58;23.50;58.80
48806;DHT22;34625;47.176;27.548;2023-02-13T16:43:47;23.50;60.00
48806;DHT22;34625;47.176;27.548;2023-02-13T16:52:16;23.50;42.30
48806;DHT22;34625;47.176;27.548;2023-02-13T16:57:32;23.40;43.50
48806;DHT22;34625;47.176;27.548;2023-02-13T17:00:21;23.40;43.90
48806;DHT22;34625;47.176;27.548;2023-02-13T17:02:49;23.40;54.60
48806;DHT22;34625;47.176;27.548;2023-02-13T17:05:27;23.40;55.40
48806;DHT22;34625;47.176;27.548;2023-02-13T17:07:54;23.50;56.10
48806;DHT22;34625;47.176;27.548;2023-02-13T17:10:30;23.50;56.40
48806;DHT22;34625;47.176;27.548;2023-02-13T17:13:20;23.30;56.80
48806;DHT22;34625;47.176;27.548;2023-02-13T17:15:46;23.40;57.10
48806;DHT22;34625;47.176;27.548;2023-02-13T17:18:13;23.30;57.40
48806;DHT22;34625;47.176;27.548;2023-02-13T17:20:43;23.30;57.70
48806;DHT22;34625;47.176;27.548;2023-02-13T17:23:23;23.10;58.50
48806;DHT22;34625;47.176;27.548;2023-02-13T17:25:51;23.00;58.90
48806;DHT22;34625;47.176;27.548;2023-02-13T17:28:19;23.00;59.10
48806;DHT22;34625;47.176;27.548;2023-02-13T17:30:50;22.90;59.30
48806;DHT22;34625;47.176;27.548;2023-02-13T17:33:25;23.00;59.30
48806;DHT22;34625;47.176;27.548;2023-02-13T17:35:52;22.80;59.10
48806;DHT22;34625;47.176;27.548;2023-02-13T17:38:18;22.80;59.00
48806;DHT22;34625;47.176;27.548;2023-02-13T17:40:44;22.80;59.20
48806;DHT22;34625;47.176;27.548;2023-02-13T17:43:12;22.70;59.20
48806;DHT22;34625;47.176;27.548;2023-02-13T17:45:39;22.80;59.50
48806;DHT22;34625;47.176;27.548;2023-02-13T17:48:05;22.70;58.90
48806;DHT22;34625;47.176;27.548;2023-02-13T17:50:32;22.80;58.90
48806;DHT22;34625;47.176;27.548;2023-02-13T17:53:07;22.70;59.10
48806;DHT22;34625;47.176;27.548;2023-02-13T17:55:34;22.80;58.50
48806;DHT22;34625;47.176;27.548;2023-02-13T17:58:00;22.70;59.00
48806;DHT22;34625;47.176;27.548;2023-02-13T18:00:30;22.70;57.70
48806;DHT22;34625;47.176;27.548;2023-02-13T18:02:57;22.50;58.90
48806;DHT22;34625;47.176;27.548;2023-02-13T18:05:24;22.50;58.60
48806;DHT22;34625;47.176;27.548;2023-02-13T18:07:50;22.40;60.90
48806;DHT22;34625;47.176;27.548;2023-02-13T18:10:19;22.40;57.80
48806;DHT22;34625;47.176;27.548;2023-02-13T18:12:47;22.30;62.00
48806;DHT22;34625;47.176;27.548;2023-02-13T18:15:14;22.30;62.50
48806;DHT22;34625;47.176;27.548;2023-02-13T18:17:40;22.30;62.40
48806;DHT22;34625;47.176;27.548;2023-02-13T18:20:11;22.30;62.90
48806;DHT22;34625;47.176;27.548;2023-02-13T18:22:37;22.30;62.30
48806;DHT22;34625;47.176;27.548;2023-02-13T18:25:04;22.20;61.40
48806;DHT22;34625;47.176;27.548;2023-02-13T18:27:30;22.10;62.30
48806;DHT22;34625;47.176;27.548;2023-02-13T18:29:57;22.30;61.90
48806;DHT22;34625;47.176;27.548;2023-02-13T18:32:23;22.20;63.20
48806;DHT22;34625;47.176;27.548;2023-02-13T18:34:49;22.30;64.20
48806;DHT22;34625;47.176;27.548;2023-02-13T18:37:17;22.20;64.30
48806;DHT22;34625;47.176;27.548;2023-02-13T18:39:43;22.30;64.60
48806;DHT22;34625;47.176;27.548;2023-02-13T18:42:09;22.50;63.70
48806;DHT22;34625;47.176;27.548;2023-02-13T18:44:38;22.60;62.80
48806;DHT22;34625;47.176;27.548;2023-02-13T18:47:04;22.70;62.80
48806;DHT22;34625;47.176;27.548;2023-02-13T18:49:31;22.70;62.10